createdAt,value
2018-02-21T00:01:55.206Z,53.47
2018-02-21T00:04:23.579Z,58.70
2018-02-21T00:06:51.124Z,53.27
2018-02-21T00:09:19.432Z,53.72
2018-02-21T00:11:47.015Z,53.07
2018-02-21T00:14:15.547Z,54.77
2018-02-21T00:16:43.097Z,55.73
2018-02-21T00:19:11.435Z,56.67
2018-02-21T00:21:38.996Z,56.70
2018-02-21T00:24:06.553Z,57.15
2018-02-21T00:26:34.420Z,58.63
2018-02-21T00:29:01.972Z,58.10
2018-02-21T00:31:29.516Z,54.87
2018-02-21T00:33:57.084Z,52.20
2018-02-21T00:36:24.627Z,57.17
2018-02-21T00:38:52.167Z,58.73
2018-02-21T00:41:20.249Z,57.38
2018-02-21T00:43:47.803Z,52.00
2018-02-21T00:46:16.479Z,52.70
2018-02-21T00:48:44.551Z,51.03
2018-02-21T00:51:12.096Z,53.80
2018-02-21T00:53:39.644Z,51.40
2018-02-21T00:56:07.217Z,52.40
2018-02-21T00:58:34.757Z,54.43
2018-02-21T01:01:02.307Z,52.90
2018-02-21T01:03:29.899Z,50.57
2018-02-21T01:05:57.452Z,51.70
2018-02-21T01:08:25.003Z,53.42
2018-02-21T01:10:53.263Z,51.78
2018-02-21T01:13:20.803Z,54.67
2018-02-21T01:15:48.343Z,54.50
2018-02-21T01:18:16.541Z,54.70
2018-02-21T01:20:44.089Z,55.77
2018-02-21T01:23:11.627Z,58.33
2018-02-21T01:25:39.220Z,55.17
2018-02-21T01:28:06.770Z,57.00
2018-02-21T01:30:34.325Z,55.83
2018-02-21T01:33:02.227Z,54.33
2018-02-21T01:35:29.767Z,54.25
2018-02-21T01:37:57.312Z,57.27
2018-02-21T01:40:24.881Z,55.75
2018-02-21T01:42:53.244Z,54.20
2018-02-21T01:45:20.787Z,53.77
2018-02-21T01:47:49.140Z,52.60
2018-02-21T01:50:16.684Z,51.37
2018-02-21T01:52:44.232Z,51.10
2018-02-21T01:55:12.420Z,54.30
2018-02-21T01:57:39.964Z,54.07
2018-02-21T02:00:07.511Z,54.55
2018-02-21T02:02:35.087Z,50.23
2018-02-21T02:05:02.623Z,52.63
2018-02-21T02:07:30.172Z,53.57
2018-02-21T02:09:57.777Z,56.43
2018-02-21T02:12:25.327Z,56.47
2018-02-21T02:14:52.872Z,54.80
2018-02-21T02:17:20.915Z,58.28
2018-02-21T02:19:48.462Z,57.10
2018-02-21T02:22:16.435Z,56.77
2018-02-21T02:24:44.007Z,57.47
2018-02-21T02:27:11.547Z,55.97
2018-02-21T02:29:39.088Z,56.17
2018-02-21T02:32:06.672Z,57.30
2018-02-21T02:34:34.985Z,54.33
2018-02-21T02:37:02.540Z,56.60
2018-02-21T02:39:42.159Z,57.00
2018-02-21T02:42:09.704Z,51.60
2018-02-21T02:44:37.803Z,55.67
2018-02-21T02:47:05.390Z,58.70
2018-02-21T02:49:32.931Z,55.65
2018-02-21T02:52:00.479Z,54.10
2018-02-21T02:54:28.053Z,55.00
2018-02-21T02:56:55.603Z,55.33
2018-02-21T02:59:23.147Z,54.80
2018-02-21T03:01:51.288Z,55.13
2018-02-21T03:04:18.839Z,53.90
2018-02-21T03:06:46.380Z,56.67
2018-02-21T03:09:25.311Z,54.65
2018-02-21T03:21:33.463Z,49.40
2018-02-21T03:24:01.019Z,54.90
2018-02-21T03:26:28.560Z,54.33
2018-02-21T03:28:56.131Z,55.37
2018-02-21T03:31:23.677Z,52.83
2018-02-21T03:33:51.231Z,56.20
2018-02-21T03:36:18.839Z,54.67
2018-02-21T03:38:46.390Z,56.70
2018-02-21T03:41:16.323Z,55.12
2018-02-21T03:43:44.819Z,55.87
2018-02-21T03:46:12.844Z,54.00
2018-02-21T03:48:40.398Z,54.03
2018-02-21T03:51:08.740Z,54.50
2018-02-21T03:53:36.451Z,49.00
2018-02-21T03:56:03.998Z,53.90
2018-02-21T03:58:32.339Z,52.47
2018-02-21T04:00:59.886Z,50.60
2018-02-21T04:03:27.440Z,49.70
2018-02-21T04:05:55.311Z,49.63
2018-02-21T04:08:22.852Z,50.03
2018-02-21T04:10:50.394Z,48.57
2018-02-21T04:13:17.969Z,46.47
2018-02-21T04:15:45.515Z,50.28
2018-02-21T04:18:27.344Z,47.20
2018-02-21T04:23:51.762Z,43.87
2018-02-21T04:26:19.312Z,46.92
2018-02-21T04:28:46.860Z,44.20
2018-02-21T04:31:16.395Z,43.25
2018-02-21T04:33:43.935Z,39.57
2018-02-21T04:36:11.484Z,45.00
2018-02-21T04:38:39.060Z,41.60
2018-02-21T04:41:06.603Z,42.97
2018-02-21T04:43:34.195Z,44.37
2018-02-21T04:46:02.128Z,45.80
2018-02-21T04:48:29.976Z,44.92
2018-02-21T04:50:57.527Z,45.92
2018-02-21T04:53:26.067Z,46.50
2018-02-21T04:56:01.159Z,44.30
2018-02-21T04:58:34.275Z,45.27
2018-02-21T05:01:01.820Z,44.13
2018-02-21T05:03:29.355Z,46.70
2018-02-21T05:05:57.407Z,45.47
2018-02-21T05:08:24.952Z,46.37
2018-02-21T05:10:52.499Z,46.35
2018-02-21T05:55:03.379Z,51.30
2018-02-21T05:57:30.934Z,55.13
2018-02-21T05:59:58.492Z,54.80
2018-02-21T06:02:26.084Z,55.93
2018-02-21T06:04:54.391Z,58.40
2018-02-21T06:07:21.934Z,56.60
2018-02-21T06:09:49.528Z,56.28
2018-02-21T06:12:17.084Z,55.77
2018-02-21T06:14:44.619Z,57.60
2018-02-21T06:17:12.247Z,57.90
2018-02-21T06:19:39.792Z,56.90
2018-02-21T06:22:07.344Z,58.53
2018-02-21T06:24:34.919Z,59.07
2018-02-21T06:27:02.463Z,55.27
2018-02-21T06:29:30.004Z,57.17
2018-02-21T06:31:57.594Z,56.73
2018-02-21T06:34:25.135Z,53.50
2018-02-21T06:36:52.679Z,53.67
2018-02-21T06:39:20.750Z,51.60
2018-02-21T06:41:48.297Z,55.00
2018-02-21T06:44:16.539Z,55.20
2018-02-21T06:46:44.879Z,52.80
2018-02-21T06:49:12.423Z,55.13
2018-02-21T06:51:39.976Z,52.27
2018-02-21T06:54:07.548Z,54.38
2018-02-21T06:56:36.354Z,53.57
2018-02-21T06:59:03.897Z,55.43
2018-02-21T07:01:31.780Z,58.30
2018-02-21T07:03:59.322Z,51.53
2018-02-21T07:06:26.870Z,50.53
2018-02-21T07:08:54.459Z,52.20
2018-02-21T07:11:22.067Z,51.10
2018-02-21T07:13:49.646Z,51.65
2018-02-21T07:16:17.341Z,49.00
2018-02-21T07:18:46.083Z,48.83
2018-02-21T07:21:24.643Z,50.97
2018-02-21T07:26:25.756Z,49.20
2018-02-21T07:28:53.307Z,49.10
2018-02-21T07:31:20.855Z,50.10
2018-02-21T07:33:48.551Z,48.30
2018-02-21T07:36:16.606Z,49.50
2018-02-21T07:38:44.311Z,47.97
2018-02-21T07:41:11.918Z,48.40
2018-02-21T07:43:39.510Z,49.23
2018-02-21T07:46:07.782Z,45.83
2018-02-21T07:48:35.363Z,47.13
2018-02-21T07:51:02.910Z,49.07
2018-02-21T07:53:30.570Z,49.47
2018-02-21T07:55:58.188Z,47.97
2018-02-21T07:58:26.299Z,48.27
2018-02-21T08:00:53.927Z,48.27
2018-02-21T08:03:21.875Z,47.78
2018-02-21T08:05:49.553Z,47.40
2018-02-21T08:08:17.119Z,47.63
2018-02-21T08:10:44.691Z,50.00
2018-02-21T08:13:14.032Z,46.80
2018-02-21T08:15:41.563Z,46.92
2018-02-21T08:18:09.158Z,46.43
2018-02-21T08:20:36.808Z,45.40
2018-02-21T08:23:04.373Z,49.57
2018-02-21T08:25:32.819Z,48.20
2018-02-21T08:28:00.391Z,46.30
2018-02-21T08:30:27.964Z,49.00
2018-02-21T08:32:55.560Z,46.72
2018-02-21T08:35:24.008Z,46.00
2018-02-21T08:37:51.551Z,44.90
2018-02-21T08:40:19.891Z,48.50
2018-02-21T08:42:47.464Z,50.03
2018-02-21T08:45:16.502Z,49.53
2018-02-21T08:47:44.681Z,51.10
2018-02-21T08:50:12.240Z,50.90
2018-02-21T08:52:40.701Z,50.53
2018-02-21T08:55:08.284Z,50.10
2018-02-21T08:57:35.827Z,51.63
2018-02-21T09:00:03.875Z,51.90
2018-02-21T09:02:31.528Z,53.17
2018-02-21T09:04:59.186Z,52.70
2018-02-21T09:07:26.837Z,51.77
2018-02-21T09:09:54.611Z,50.77
2018-02-21T09:12:22.344Z,53.40
2018-02-21T09:14:49.914Z,52.10
2018-02-21T09:17:17.481Z,53.22
2018-02-21T09:19:45.021Z,51.73
2018-02-21T09:22:12.890Z,54.03
2018-02-21T09:24:40.467Z,53.10
2018-02-21T09:27:08.009Z,53.97
2018-02-21T09:29:35.738Z,53.30
2018-02-21T09:32:04.245Z,53.30
2018-02-21T09:34:31.778Z,54.70
2018-02-21T09:36:59.361Z,55.00
2018-02-21T09:39:26.934Z,57.62
2018-02-21T09:41:54.473Z,56.70
2018-02-21T09:44:22.007Z,56.30
2018-02-21T09:46:49.590Z,53.95
2018-02-21T09:49:17.364Z,56.67
2018-02-21T09:51:44.898Z,55.20
2018-02-21T09:54:12.823Z,58.13
2018-02-21T09:56:40.523Z,55.77
2018-02-21T09:59:08.065Z,59.10
2018-02-21T10:01:36.131Z,58.00
2018-02-21T10:04:03.667Z,58.20
2018-02-21T10:06:31.211Z,57.53
2018-02-21T10:08:58.817Z,56.00
2018-02-21T10:11:26.360Z,56.10
2018-02-21T10:13:53.891Z,57.30
2018-02-21T10:16:22.087Z,57.17
2018-02-21T10:18:49.940Z,56.40
2018-02-21T10:21:17.493Z,60.37
2018-02-21T10:23:45.074Z,58.43
2018-02-21T10:26:13.700Z,57.72
2018-02-21T10:28:41.247Z,59.87
2018-02-21T10:31:09.607Z,58.93
2018-02-21T10:33:37.151Z,56.93
2018-02-21T10:36:04.770Z,58.00
2018-02-21T10:38:32.697Z,56.03
2018-02-21T10:41:00.200Z,58.70
2018-02-21T10:43:27.765Z,57.83
2018-02-21T10:45:55.348Z,60.53
2018-02-21T10:48:22.895Z,60.83
2018-02-21T10:50:50.467Z,61.43
2018-02-21T10:53:18.047Z,59.17
2018-02-21T10:55:45.584Z,61.72
2018-02-21T10:58:25.157Z,61.22
2018-02-21T11:03:27.727Z,59.13
2018-02-21T11:05:55.269Z,57.30
2018-02-21T11:08:22.808Z,59.27
2018-02-21T11:10:50.374Z,57.43
2018-02-21T11:13:17.922Z,56.50
2018-02-21T11:15:46.239Z,58.42
2018-02-21T11:18:27.548Z,58.60
2018-02-21T11:29:10.128Z,57.43
2018-02-21T11:31:37.671Z,56.03
2018-02-21T11:34:05.230Z,56.27
2018-02-21T11:36:33.521Z,55.65
2018-02-21T11:39:01.102Z,56.33
2018-02-21T11:41:28.861Z,55.60
2018-02-21T11:43:56.455Z,56.87
2018-02-21T11:46:24.000Z,50.63
2018-02-21T11:48:52.315Z,55.17
2018-02-21T11:51:20.092Z,58.35
2018-02-21T11:53:47.630Z,63.90
2018-02-21T11:56:15.561Z,57.30
2018-02-21T11:58:43.191Z,59.30
2018-02-21T12:01:10.739Z,61.70
2018-02-21T12:03:38.576Z,60.13
2018-02-21T12:06:06.151Z,60.00
2018-02-21T12:08:33.691Z,58.00
2018-02-21T12:11:01.292Z,59.03
2018-02-21T12:13:28.939Z,59.37
2018-02-21T12:15:56.490Z,61.65
2018-02-21T12:18:24.039Z,60.58
2018-02-21T12:20:52.284Z,60.07
2018-02-21T12:23:19.815Z,60.70
2018-02-21T12:25:47.754Z,59.00
2018-02-21T12:28:16.492Z,62.10
2018-02-21T12:30:44.032Z,61.30
2018-02-21T12:33:11.589Z,62.85
2018-02-21T12:35:39.164Z,57.67
2018-02-21T12:38:06.711Z,61.70
2018-02-21T12:40:39.841Z,62.10
2018-02-21T12:43:07.763Z,61.40
2018-02-21T12:45:35.306Z,61.80
2018-02-21T12:48:02.849Z,59.67
2018-02-21T12:50:30.428Z,61.57
2018-02-21T12:52:57.974Z,63.23
2018-02-21T12:55:25.519Z,61.88
2018-02-21T12:57:53.143Z,60.77
2018-02-21T13:00:20.684Z,63.37
2018-02-21T13:02:48.247Z,64.60
2018-02-21T13:05:17.319Z,62.35
2018-02-21T13:07:44.952Z,60.80
2018-02-21T13:10:12.492Z,63.00
2018-02-21T13:12:40.070Z,63.30
2018-02-21T13:15:07.631Z,60.87
2018-02-21T13:17:35.935Z,59.47
2018-02-21T13:20:03.494Z,59.47
2018-02-21T13:22:31.039Z,63.57
2018-02-21T13:24:58.582Z,63.40
2018-02-21T13:27:26.386Z,58.13
2018-02-21T13:29:53.930Z,60.37
2018-02-21T13:32:21.477Z,60.17
2018-02-21T13:34:49.376Z,60.30
2018-02-21T13:37:17.068Z,62.37
2018-02-21T13:39:44.621Z,60.63
2018-02-21T13:42:12.201Z,61.40
2018-02-21T13:44:39.823Z,60.57
2018-02-21T13:47:07.395Z,58.85
2018-02-21T13:49:35.376Z,60.15
2018-02-21T13:52:02.929Z,59.37
2018-02-21T13:54:30.469Z,56.83
2018-02-21T13:56:58.388Z,59.70
2018-02-21T13:59:25.936Z,58.97
2018-02-21T14:01:53.483Z,58.53
2018-02-21T14:04:23.878Z,56.20
2018-02-21T14:06:51.876Z,56.35
2018-02-21T14:09:20.239Z,52.90
2018-02-21T14:11:48.217Z,53.93
2018-02-21T14:14:16.730Z,56.22
2018-02-21T14:16:44.293Z,58.70
2018-02-21T14:19:11.884Z,57.40
2018-02-21T14:21:40.184Z,57.30
2018-02-21T14:24:07.739Z,58.03
2018-02-21T14:26:35.512Z,57.70
2018-02-21T14:29:03.047Z,58.17
2018-02-21T14:31:30.592Z,59.38
2018-02-21T14:33:59.397Z,54.87
2018-02-21T14:36:26.938Z,57.85
2018-02-21T14:38:54.471Z,56.55
2018-02-21T14:41:22.036Z,56.47
2018-02-21T14:43:49.576Z,58.22
2018-02-21T14:46:17.110Z,58.77
2018-02-21T14:48:44.699Z,57.90
2018-02-21T14:51:12.244Z,59.17
2018-02-21T14:53:39.788Z,56.37
2018-02-21T14:56:07.416Z,58.17
2018-02-21T14:58:35.822Z,56.03
2018-02-21T15:01:03.406Z,56.83
2018-02-21T15:03:30.982Z,57.07
2018-02-21T15:05:58.532Z,57.60
2018-02-21T15:08:26.451Z,59.70
2018-02-21T15:10:54.783Z,59.50
2018-02-21T15:13:23.998Z,58.50
2018-02-21T15:15:51.539Z,62.55
2018-02-21T15:18:19.422Z,60.70
2018-02-21T15:20:47.076Z,61.67
2018-02-21T15:23:16.347Z,59.67
2018-02-21T15:25:44.044Z,62.43
2018-02-21T15:28:11.609Z,63.92
2018-02-21T15:30:39.148Z,61.33
2018-02-21T15:33:07.147Z,60.80
2018-02-21T15:35:34.679Z,58.20
2018-02-21T15:38:02.256Z,62.80
2018-02-21T15:40:30.296Z,58.73
2018-02-21T15:42:58.092Z,60.40
2018-02-21T15:45:25.700Z,58.53
2018-02-21T15:47:53.263Z,57.27
2018-02-21T15:50:20.807Z,59.60
2018-02-21T15:52:48.352Z,57.17
2018-02-21T15:55:16.584Z,60.85
2018-02-21T15:57:44.127Z,61.30
2018-02-21T16:00:11.719Z,58.22
2018-02-21T16:02:39.350Z,57.07
2018-02-21T16:05:06.945Z,56.90
2018-02-21T16:07:34.959Z,60.17
2018-02-21T16:10:03.115Z,60.97
2018-02-21T16:12:31.679Z,71.82
2018-02-21T16:14:59.233Z,63.23
2018-02-21T16:17:26.832Z,63.93
2018-02-21T16:19:54.371Z,64.10
2018-02-21T16:22:23.234Z,59.10
2018-02-21T16:24:50.933Z,59.83
2018-02-21T16:27:19.246Z,58.63
2018-02-21T16:29:46.804Z,60.13
2018-02-21T16:32:25.369Z,60.67
2018-02-21T16:37:29.715Z,56.17
2018-02-21T16:39:57.290Z,59.67
2018-02-21T16:42:24.836Z,58.97
2018-02-21T16:44:52.754Z,59.47
2018-02-21T16:47:20.525Z,61.30
2018-02-21T16:49:48.074Z,58.73
2018-02-21T16:52:16.601Z,57.90
2018-02-21T16:54:44.160Z,66.00
2018-02-21T16:57:11.717Z,59.07
2018-02-21T16:59:39.358Z,64.50
2018-02-21T17:02:06.961Z,64.97
2018-02-21T17:04:34.843Z,67.75
2018-02-21T17:07:02.657Z,72.13
2018-02-21T17:09:30.241Z,67.33
2018-02-21T17:11:58.065Z,69.70
2018-02-21T17:14:25.687Z,69.73
2018-02-21T17:16:53.247Z,71.50
2018-02-21T17:19:21.572Z,66.97
2018-02-21T17:21:49.181Z,67.90
2018-02-21T17:24:17.569Z,62.70
2018-02-21T17:26:45.959Z,64.20
2018-02-21T17:29:14.908Z,62.17
2018-02-21T17:31:42.464Z,64.00
2018-02-21T17:34:10.051Z,63.77
2018-02-21T17:36:37.671Z,62.63
2018-02-21T17:39:06.120Z,64.07
2018-02-21T17:41:33.712Z,64.60
2018-02-21T17:44:01.399Z,68.23
2018-02-21T17:46:28.961Z,67.28
2018-02-21T17:48:56.528Z,61.28
2018-02-21T17:51:28.716Z,63.53
2018-02-21T17:53:57.069Z,64.53
2018-02-21T17:56:24.712Z,70.53
2018-02-21T17:58:52.405Z,65.50
2018-02-21T18:01:20.212Z,95.10
2018-02-21T18:03:47.815Z,85.70
2018-02-21T18:06:17.220Z,73.07
2018-02-21T18:08:44.764Z,75.50
2018-02-21T18:11:12.312Z,79.30
2018-02-21T18:13:40.135Z,70.60
2018-02-21T18:16:09.255Z,68.17
2018-02-21T18:18:36.909Z,66.30
2018-02-21T18:21:04.598Z,61.90
2018-02-21T18:23:32.136Z,65.40
2018-02-21T18:25:59.679Z,70.37
2018-02-21T18:28:28.021Z,86.37
2018-02-21T18:30:55.554Z,72.45
2018-02-21T18:33:23.116Z,71.87
2018-02-21T18:35:50.722Z,67.87
2018-02-21T18:38:18.260Z,69.80
2018-02-21T18:40:45.804Z,61.13
2018-02-21T18:43:25.284Z,66.43
2018-02-21T18:48:36.959Z,67.47
2018-02-21T18:51:04.495Z,66.20
2018-02-21T18:53:32.031Z,75.10
2018-02-21T18:55:59.623Z,76.22
2018-02-21T18:58:28.043Z,79.07
2018-02-21T19:00:58.375Z,77.90
2018-02-21T19:03:31.035Z,75.23
2018-02-21T19:05:58.596Z,70.50
2018-02-21T19:08:26.155Z,72.53
2018-02-21T19:10:54.125Z,77.65
2018-02-21T19:13:23.714Z,77.80
2018-02-21T19:15:51.540Z,75.33
2018-02-21T19:18:20.032Z,79.07
2018-02-21T19:20:47.623Z,76.75
2018-02-21T19:23:16.528Z,76.57
2018-02-21T19:25:44.122Z,68.90
2018-02-21T19:28:12.751Z,64.93
2018-02-21T19:30:42.025Z,69.20
2018-02-21T19:33:10.385Z,73.30
2018-02-21T19:35:37.968Z,69.03
2018-02-21T19:38:08.437Z,69.18
2018-02-21T19:40:36.072Z,80.03
2018-02-21T19:43:08.141Z,76.43
2018-02-21T19:45:35.704Z,77.12
2018-02-21T19:48:05.209Z,78.00
2018-02-21T19:50:32.778Z,72.93
2018-02-21T19:53:00.655Z,72.00
2018-02-21T19:55:29.083Z,71.27
2018-02-21T19:57:56.639Z,70.87
2018-02-21T20:00:25.016Z,70.40
2018-02-21T20:02:52.934Z,70.33
2018-02-21T20:08:25.233Z,63.60
2018-02-21T20:14:28.328Z,55.83
2018-02-21T20:16:56.996Z,59.37
2018-02-21T20:19:24.556Z,57.80
2018-02-21T20:21:52.578Z,66.13
2018-02-21T20:24:20.177Z,64.12
2018-02-21T20:26:47.796Z,64.07
2018-02-21T20:29:17.409Z,67.95
2018-02-21T20:31:44.956Z,75.60
2018-02-21T20:34:12.505Z,68.07
2018-02-21T20:36:40.079Z,72.87
2018-02-21T20:39:07.622Z,70.33
2018-02-21T20:41:35.179Z,68.77
2018-02-21T20:44:03.054Z,68.20
2018-02-21T20:46:30.604Z,69.10
2018-02-21T20:48:58.170Z,65.80
2018-02-21T20:51:25.839Z,64.03
2018-02-21T20:53:53.387Z,66.50
2018-02-21T20:56:20.935Z,65.50
2018-02-21T20:58:48.508Z,63.85
2018-02-21T21:01:16.512Z,69.43
2018-02-21T21:03:44.063Z,72.27
2018-02-21T21:06:11.823Z,69.47
2018-02-21T21:08:39.373Z,70.30
2018-02-21T21:11:06.928Z,71.30
2018-02-21T21:13:40.996Z,70.18
2018-02-21T21:16:08.544Z,69.37
2018-02-21T21:18:36.611Z,63.63
2018-02-21T21:21:04.202Z,67.20
2018-02-21T21:23:32.517Z,68.60
2018-02-21T21:26:00.176Z,64.03
2018-02-21T21:28:27.856Z,64.13
2018-02-21T21:30:55.479Z,64.53
2018-02-21T21:33:23.071Z,63.10
2018-02-21T21:35:50.644Z,62.80
2018-02-21T21:38:18.271Z,61.50
2018-02-21T21:40:45.817Z,62.30
2018-02-21T21:43:26.047Z,60.92
2018-02-21T21:55:54.064Z,60.10
2018-02-21T21:58:21.620Z,64.57
2018-02-21T22:00:49.183Z,65.00
2018-02-21T22:03:16.826Z,64.57
2018-02-21T22:05:44.402Z,61.10
2018-02-21T22:08:11.945Z,62.63
2018-02-21T22:10:39.548Z,61.42
2018-02-21T22:13:07.095Z,64.93
2018-02-21T22:15:34.643Z,59.07
2018-02-21T22:18:02.259Z,60.20
2018-02-21T22:20:29.981Z,58.70
2018-02-21T22:22:57.537Z,55.67
2018-02-21T22:25:25.123Z,60.37
2018-02-21T22:27:53.445Z,57.93
2018-02-21T22:30:21.045Z,60.63
2018-02-21T22:32:48.630Z,59.80
2018-02-21T22:35:16.510Z,60.27
2018-02-21T22:37:44.055Z,59.67
2018-02-21T22:40:11.991Z,56.78
2018-02-21T22:42:39.543Z,59.70
2018-02-21T22:45:07.079Z,58.40
2018-02-21T22:47:34.639Z,54.93
2018-02-21T22:50:02.388Z,60.00
2018-02-21T22:52:29.935Z,62.53
2018-02-21T22:54:58.284Z,57.88
2018-02-21T22:57:25.834Z,58.30
2018-02-21T22:59:53.399Z,58.07
2018-02-21T23:02:21.559Z,57.37
2018-02-21T23:04:49.102Z,58.80
2018-02-21T23:07:16.659Z,58.70
2018-02-21T23:09:44.239Z,55.90
2018-02-21T23:12:11.836Z,56.37
2018-02-21T23:14:39.351Z,58.10
2018-02-21T23:17:06.930Z,55.97
2018-02-21T23:19:34.490Z,55.30
2018-02-21T23:22:02.171Z,54.97
2018-02-21T23:24:29.798Z,56.33
2018-02-21T23:26:57.342Z,53.90
2018-02-21T23:29:24.899Z,54.73
2018-02-21T23:31:52.477Z,51.10
2018-02-21T23:34:20.024Z,51.45
2018-02-21T23:36:47.571Z,50.67
2018-02-21T23:39:15.535Z,51.00
2018-02-21T23:41:43.078Z,48.00
2018-02-21T23:44:11.389Z,51.23
2018-02-21T23:46:39.791Z,50.57
2018-02-21T23:49:07.335Z,50.50
2018-02-21T23:51:34.884Z,48.00
2018-02-21T23:54:02.487Z,50.30
2018-02-21T23:56:30.040Z,48.25
2018-02-21T23:58:57.591Z,50.03
